Terminal Aerodrome Forecast
Issued by NWS

Home | Current Version | Previous Version | Text Only | Print | Product List | Glossary On
Versions: 1 2 3 4 5 6 7 8 9 10 11 12 13 14 15 16 17 18
546
FTUS43 KAPX 110524
TAFMBL
TAF
KMBL 110524Z 1106/1206 00000KT P6SM VCSH OVC040
     FM110900 13004KT 2SM -SHSN OVC025
     FM111300 14011KT 1 1/2SM -SN OVC025
     FM111500 13011KT 1SM -SN OVC015
     FM120400 20004KT 2SM -SN OVC008=

USA.gov is the U.S. government's official web portal to all federal, state and local government web resources and services.